sensor_id;sensor_type;location;lat;lon;timestamp;P1;durP1;ratioP1;P2;durP2;ratioP2
51780;SDS011;37844;57.126;24.288;2022-10-23T00:01:16;43.00;;;19.52;;
51780;SDS011;37844;57.126;24.288;2022-10-23T00:03:44;51.70;;;18.90;;
51780;SDS011;37844;57.126;24.288;2022-10-23T00:06:11;36.85;;;17.30;;
51780;SDS011;37844;57.126;24.288;2022-10-23T00:08:37;32.30;;;16.85;;
51780;SDS011;37844;57.126;24.288;2022-10-23T00:11:10;29.65;;;14.98;;
51780;SDS011;37844;57.126;24.288;2022-10-23T00:13:37;25.67;;;15.10;;
51780;SDS011;37844;57.126;24.288;2022-10-23T00:16:03;32.38;;;15.90;;
51780;SDS011;37844;57.126;24.288;2022-10-23T00:18:29;29.80;;;15.40;;
51780;SDS011;37844;57.126;24.288;2022-10-23T00:20:55;29.65;;;14.93;;
51780;SDS011;37844;57.126;24.288;2022-10-23T00:23:21;30.55;;;16.45;;
51780;SDS011;37844;57.126;24.288;2022-10-23T00:25:47;29.90;;;15.13;;
51780;SDS011;37844;57.126;24.288;2022-10-23T00:28:12;35.10;;;17.27;;
51780;SDS011;37844;57.126;24.288;2022-10-23T00:30:38;28.05;;;16.48;;
51780;SDS011;37844;57.126;24.288;2022-10-23T00:33:04;28.65;;;16.92;;
51780;SDS011;37844;57.126;24.288;2022-10-23T00:35:29;26.02;;;16.75;;
51780;SDS011;37844;57.126;24.288;2022-10-23T00:37:55;32.25;;;16.35;;
51780;SDS011;37844;57.126;24.288;2022-10-23T00:40:20;32.55;;;16.85;;
51780;SDS011;37844;57.126;24.288;2022-10-23T00:42:45;26.02;;;15.57;;
51780;SDS011;37844;57.126;24.288;2022-10-23T00:45:18;28.17;;;13.95;;
51780;SDS011;37844;57.126;24.288;2022-10-23T00:47:46;29.75;;;15.13;;
51780;SDS011;37844;57.126;24.288;2022-10-23T00:50:12;35.08;;;16.30;;
51780;SDS011;37844;57.126;24.288;2022-10-23T00:52:40;31.92;;;16.85;;
51780;SDS011;37844;57.126;24.288;2022-10-23T00:55:10;37.35;;;16.85;;
51780;SDS011;37844;57.126;24.288;2022-10-23T00:57:37;28.17;;;15.80;;
51780;SDS011;37844;57.126;24.288;2022-10-23T01:00:06;29.33;;;16.52;;
51780;SDS011;37844;57.126;24.288;2022-10-23T01:02:32;33.92;;;16.30;;
51780;SDS011;37844;57.126;24.288;2022-10-23T01:04:58;25.85;;;15.50;;
51780;SDS011;37844;57.126;24.288;2022-10-23T01:15:30;35.45;;;17.52;;
51780;SDS011;37844;57.126;24.288;2022-10-23T01:18:13;27.58;;;18.13;;
51780;SDS011;37844;57.126;24.288;2022-10-23T01:31:04;38.53;;;17.58;;
51780;SDS011;37844;57.126;24.288;2022-10-23T01:33:45;26.02;;;15.88;;
51780;SDS011;37844;57.126;24.288;2022-10-23T01:36:16;29.70;;;16.25;;
51780;SDS011;37844;57.126;24.288;2022-10-23T01:41:25;25.65;;;16.90;;
51780;SDS011;37844;57.126;24.288;2022-10-23T01:43:55;33.78;;;16.05;;
51780;SDS011;37844;57.126;24.288;2022-10-23T01:46:31;32.58;;;16.15;;
51780;SDS011;37844;57.126;24.288;2022-10-23T01:48:59;29.83;;;16.67;;
51780;SDS011;37844;57.126;24.288;2022-10-23T01:51:27;27.73;;;14.00;;
51780;SDS011;37844;57.126;24.288;2022-10-23T01:53:57;31.05;;;16.05;;
51780;SDS011;37844;57.126;24.288;2022-10-23T01:56:26;29.73;;;15.75;;
51780;SDS011;37844;57.126;24.288;2022-10-23T01:58:55;27.90;;;17.38;;
51780;SDS011;37844;57.126;24.288;2022-10-23T02:01:24;37.17;;;17.35;;
51780;SDS011;37844;57.126;24.288;2022-10-23T02:03:53;28.58;;;16.73;;
51780;SDS011;37844;57.126;24.288;2022-10-23T02:06:20;30.55;;;15.63;;
51780;SDS011;37844;57.126;24.288;2022-10-23T02:08:46;36.53;;;17.85;;
51780;SDS011;37844;57.126;24.288;2022-10-23T02:11:13;27.83;;;16.23;;
51780;SDS011;37844;57.126;24.288;2022-10-23T02:13:46;28.52;;;17.00;;
51780;SDS011;37844;57.126;24.288;2022-10-23T02:16:38;29.73;;;17.17;;
51780;SDS011;37844;57.126;24.288;2022-10-23T02:24:11;32.70;;;17.63;;
51780;SDS011;37844;57.126;24.288;2022-10-23T02:26:45;26.73;;;16.48;;
51780;SDS011;37844;57.126;24.288;2022-10-23T02:31:55;30.67;;;16.90;;
51780;SDS011;37844;57.126;24.288;2022-10-23T02:34:20;27.95;;;16.30;;
51780;SDS011;37844;57.126;24.288;2022-10-23T02:36:47;30.17;;;17.10;;
51780;SDS011;37844;57.126;24.288;2022-10-23T02:39:12;30.60;;;17.02;;
51780;SDS011;37844;57.126;24.288;2022-10-23T02:47:09;26.95;;;16.83;;
51780;SDS011;37844;57.126;24.288;2022-10-23T02:52:28;27.75;;;17.25;;
51780;SDS011;37844;57.126;24.288;2022-10-23T02:57:52;33.90;;;17.75;;
51780;SDS011;37844;57.126;24.288;2022-10-23T03:00:22;27.23;;;16.00;;
51780;SDS011;37844;57.126;24.288;2022-10-23T03:02:53;33.58;;;18.75;;
51780;SDS011;37844;57.126;24.288;2022-10-23T03:05:23;27.98;;;18.50;;
51780;SDS011;37844;57.126;24.288;2022-10-23T03:07:52;35.85;;;17.08;;
51780;SDS011;37844;57.126;24.288;2022-10-23T03:10:18;27.13;;;16.63;;
51780;SDS011;37844;57.126;24.288;2022-10-23T03:12:43;29.55;;;16.98;;
51780;SDS011;37844;57.126;24.288;2022-10-23T03:15:11;30.52;;;18.55;;
51780;SDS011;37844;57.126;24.288;2022-10-23T03:17:37;33.33;;;18.42;;
51780;SDS011;37844;57.126;24.288;2022-10-23T03:20:03;34.80;;;19.00;;
51780;SDS011;37844;57.126;24.288;2022-10-23T03:22:30;28.95;;;17.35;;
51780;SDS011;37844;57.126;24.288;2022-10-23T03:24:55;35.10;;;19.63;;
51780;SDS011;37844;57.126;24.288;2022-10-23T03:27:21;28.15;;;17.50;;
51780;SDS011;37844;57.126;24.288;2022-10-23T03:29:46;28.45;;;18.85;;
51780;SDS011;37844;57.126;24.288;2022-10-23T03:32:12;25.10;;;17.33;;
51780;SDS011;37844;57.126;24.288;2022-10-23T03:34:37;29.90;;;18.08;;
51780;SDS011;37844;57.126;24.288;2022-10-23T03:37:03;31.30;;;18.58;;
51780;SDS011;37844;57.126;24.288;2022-10-23T03:39:28;31.30;;;20.70;;
51780;SDS011;37844;57.126;24.288;2022-10-23T03:41:53;33.90;;;18.75;;
51780;SDS011;37844;57.126;24.288;2022-10-23T03:44:19;39.03;;;19.38;;
51780;SDS011;37844;57.126;24.288;2022-10-23T03:46:44;38.22;;;22.02;;
51780;SDS011;37844;57.126;24.288;2022-10-23T03:49:10;31.17;;;20.75;;
51780;SDS011;37844;57.126;24.288;2022-10-23T03:51:35;32.15;;;19.75;;
51780;SDS011;37844;57.126;24.288;2022-10-23T03:54:01;29.90;;;19.42;;
51780;SDS011;37844;57.126;24.288;2022-10-23T03:56:26;34.05;;;20.27;;
51780;SDS011;37844;57.126;24.288;2022-10-23T03:58:52;34.30;;;19.75;;
51780;SDS011;37844;57.126;24.288;2022-10-23T04:01:17;30.52;;;19.35;;
51780;SDS011;37844;57.126;24.288;2022-10-23T04:03:43;40.25;;;20.92;;
51780;SDS011;37844;57.126;24.288;2022-10-23T04:06:08;37.40;;;23.00;;
51780;SDS011;37844;57.126;24.288;2022-10-23T04:08:34;37.50;;;24.23;;
51780;SDS011;37844;57.126;24.288;2022-10-23T04:10:59;35.65;;;24.77;;
51780;SDS011;37844;57.126;24.288;2022-10-23T04:13:25;36.15;;;22.02;;
51780;SDS011;37844;57.126;24.288;2022-10-23T04:15:51;37.65;;;23.63;;
51780;SDS011;37844;57.126;24.288;2022-10-23T04:18:17;38.28;;;23.63;;
51780;SDS011;37844;57.126;24.288;2022-10-23T04:20:46;36.58;;;20.98;;
51780;SDS011;37844;57.126;24.288;2022-10-23T04:23:12;33.60;;;23.33;;
51780;SDS011;37844;57.126;24.288;2022-10-23T04:25:37;32.15;;;22.70;;
51780;SDS011;37844;57.126;24.288;2022-10-23T04:28:03;36.90;;;23.80;;
51780;SDS011;37844;57.126;24.288;2022-10-23T04:30:28;34.10;;;21.52;;
51780;SDS011;37844;57.126;24.288;2022-10-23T04:32:53;35.47;;;22.15;;
51780;SDS011;37844;57.126;24.288;2022-10-23T04:35:19;36.75;;;21.95;;
51780;SDS011;37844;57.126;24.288;2022-10-23T04:37:45;33.38;;;20.52;;
51780;SDS011;37844;57.126;24.288;2022-10-23T04:40:10;30.25;;;20.48;;
51780;SDS011;37844;57.126;24.288;2022-10-23T04:42:36;32.00;;;20.67;;
51780;SDS011;37844;57.126;24.288;2022-10-23T04:45:01;31.90;;;20.90;;
51780;SDS011;37844;57.126;24.288;2022-10-23T04:47:27;33.30;;;19.65;;
51780;SDS011;37844;57.126;24.288;2022-10-23T04:49:53;30.05;;;20.70;;
51780;SDS011;37844;57.126;24.288;2022-10-23T04:52:18;32.25;;;19.73;;
51780;SDS011;37844;57.126;24.288;2022-10-23T04:54:44;29.63;;;21.30;;
51780;SDS011;37844;57.126;24.288;2022-10-23T04:57:09;27.73;;;19.17;;
51780;SDS011;37844;57.126;24.288;2022-10-23T04:59:35;45.95;;;31.55;;
51780;SDS011;37844;57.126;24.288;2022-10-23T05:02:00;54.72;;;35.67;;
51780;SDS011;37844;57.126;24.288;2022-10-23T05:04:26;37.42;;;25.35;;
51780;SDS011;37844;57.126;24.288;2022-10-23T05:06:51;40.45;;;27.25;;
51780;SDS011;37844;57.126;24.288;2022-10-23T05:09:17;38.42;;;25.63;;
51780;SDS011;37844;57.126;24.288;2022-10-23T05:11:42;37.80;;;22.77;;
51780;SDS011;37844;57.126;24.288;2022-10-23T05:14:08;37.33;;;22.35;;
51780;SDS011;37844;57.126;24.288;2022-10-23T05:16:47;35.35;;;21.88;;
51780;SDS011;37844;57.126;24.288;2022-10-23T05:19:21;34.08;;;22.13;;
51780;SDS011;37844;57.126;24.288;2022-10-23T05:21:50;32.15;;;21.02;;
51780;SDS011;37844;57.126;24.288;2022-10-23T05:24:20;34.83;;;21.60;;
51780;SDS011;37844;57.126;24.288;2022-10-23T05:26:46;33.78;;;21.85;;
51780;SDS011;37844;57.126;24.288;2022-10-23T05:29:12;31.08;;;20.08;;
51780;SDS011;37844;57.126;24.288;2022-10-23T05:31:37;29.52;;;21.42;;
51780;SDS011;37844;57.126;24.288;2022-10-23T05:34:03;29.42;;;21.27;;
51780;SDS011;37844;57.126;24.288;2022-10-23T05:36:30;47.67;;;30.52;;
51780;SDS011;37844;57.126;24.288;2022-10-23T05:38:56;41.20;;;25.52;;
51780;SDS011;37844;57.126;24.288;2022-10-23T05:41:22;35.63;;;23.13;;
51780;SDS011;37844;57.126;24.288;2022-10-23T05:43:47;34.33;;;22.08;;
51780;SDS011;37844;57.126;24.288;2022-10-23T05:46:13;32.00;;;21.85;;
51780;SDS011;37844;57.126;24.288;2022-10-23T05:48:38;35.60;;;20.48;;
51780;SDS011;37844;57.126;24.288;2022-10-23T05:51:05;31.35;;;19.35;;
51780;SDS011;37844;57.126;24.288;2022-10-23T05:53:31;35.55;;;21.77;;
51780;SDS011;37844;57.126;24.288;2022-10-23T05:56:02;34.85;;;21.27;;
51780;SDS011;37844;57.126;24.288;2022-10-23T05:58:29;32.88;;;20.23;;
51780;SDS011;37844;57.126;24.288;2022-10-23T06:00:54;40.67;;;20.38;;
51780;SDS011;37844;57.126;24.288;2022-10-23T06:03:20;36.60;;;21.02;;
51780;SDS011;37844;57.126;24.288;2022-10-23T06:05:49;33.80;;;20.20;;
51780;SDS011;37844;57.126;24.288;2022-10-23T06:08:15;30.80;;;20.60;;
51780;SDS011;37844;57.126;24.288;2022-10-23T06:10:40;36.22;;;21.13;;
51780;SDS011;37844;57.126;24.288;2022-10-23T06:13:06;34.33;;;21.35;;
51780;SDS011;37844;57.126;24.288;2022-10-23T06:15:31;34.63;;;21.98;;
51780;SDS011;37844;57.126;24.288;2022-10-23T06:18:00;34.78;;;21.55;;
51780;SDS011;37844;57.126;24.288;2022-10-23T06:20:26;35.60;;;21.63;;
51780;SDS011;37844;57.126;24.288;2022-10-23T06:22:52;37.13;;;22.15;;
51780;SDS011;37844;57.126;24.288;2022-10-23T06:25:17;34.13;;;22.27;;
51780;SDS011;37844;57.126;24.288;2022-10-23T06:27:42;33.60;;;22.48;;
51780;SDS011;37844;57.126;24.288;2022-10-23T06:30:08;39.42;;;24.00;;
51780;SDS011;37844;57.126;24.288;2022-10-23T06:32:34;35.88;;;21.67;;
51780;SDS011;37844;57.126;24.288;2022-10-23T06:34:59;39.60;;;23.77;;
51780;SDS011;37844;57.126;24.288;2022-10-23T06:37:25;39.00;;;24.60;;
51780;SDS011;37844;57.126;24.288;2022-10-23T06:39:50;35.03;;;23.25;;
51780;SDS011;37844;57.126;24.288;2022-10-23T06:42:16;34.80;;;22.70;;
51780;SDS011;37844;57.126;24.288;2022-10-23T06:44:41;33.78;;;21.35;;
51780;SDS011;37844;57.126;24.288;2022-10-23T06:47:07;36.95;;;22.75;;
51780;SDS011;37844;57.126;24.288;2022-10-23T06:49:34;38.53;;;23.60;;
51780;SDS011;37844;57.126;24.288;2022-10-23T06:52:00;35.60;;;21.80;;
51780;SDS011;37844;57.126;24.288;2022-10-23T06:54:25;36.80;;;22.00;;
51780;SDS011;37844;57.126;24.288;2022-10-23T06:56:51;40.17;;;24.77;;
51780;SDS011;37844;57.126;24.288;2022-10-23T06:59:17;35.83;;;24.30;;
51780;SDS011;37844;57.126;24.288;2022-10-23T07:01:43;33.17;;;20.90;;
51780;SDS011;37844;57.126;24.288;2022-10-23T07:04:09;37.25;;;21.95;;
51780;SDS011;37844;57.126;24.288;2022-10-23T07:06:34;37.22;;;23.02;;
51780;SDS011;37844;57.126;24.288;2022-10-23T07:08:59;35.55;;;20.52;;
51780;SDS011;37844;57.126;24.288;2022-10-23T07:11:25;34.83;;;23.77;;
51780;SDS011;37844;57.126;24.288;2022-10-23T07:13:52;34.80;;;22.95;;
51780;SDS011;37844;57.126;24.288;2022-10-23T07:16:19;32.95;;;21.58;;
51780;SDS011;37844;57.126;24.288;2022-10-23T07:18:45;33.05;;;22.70;;
51780;SDS011;37844;57.126;24.288;2022-10-23T07:21:12;33.95;;;22.42;;
51780;SDS011;37844;57.126;24.288;2022-10-23T07:23:37;41.80;;;21.30;;
51780;SDS011;37844;57.126;24.288;2022-10-23T07:26:07;30.48;;;19.90;;
51780;SDS011;37844;57.126;24.288;2022-10-23T07:28:34;34.65;;;21.33;;
51780;SDS011;37844;57.126;24.288;2022-10-23T07:31:00;27.67;;;20.15;;
51780;SDS011;37844;57.126;24.288;2022-10-23T07:33:25;32.53;;;22.10;;
51780;SDS011;37844;57.126;24.288;2022-10-23T07:35:51;28.17;;;18.73;;
51780;SDS011;37844;57.126;24.288;2022-10-23T07:38:17;35.83;;;22.38;;
51780;SDS011;37844;57.126;24.288;2022-10-23T07:40:43;30.17;;;20.98;;
51780;SDS011;37844;57.126;24.288;2022-10-23T07:43:09;34.58;;;23.05;;
51780;SDS011;37844;57.126;24.288;2022-10-23T07:45:35;42.50;;;24.17;;
51780;SDS011;37844;57.126;24.288;2022-10-23T07:48:00;41.00;;;24.33;;
51780;SDS011;37844;57.126;24.288;2022-10-23T07:50:26;46.47;;;25.90;;
51780;SDS011;37844;57.126;24.288;2022-10-23T07:52:51;41.38;;;25.42;;
51780;SDS011;37844;57.126;24.288;2022-10-23T07:55:17;38.10;;;25.38;;
51780;SDS011;37844;57.126;24.288;2022-10-23T07:57:42;37.22;;;23.25;;
51780;SDS011;37844;57.126;24.288;2022-10-23T08:00:08;35.83;;;23.80;;
51780;SDS011;37844;57.126;24.288;2022-10-23T08:02:35;35.45;;;22.67;;
51780;SDS011;37844;57.126;24.288;2022-10-23T08:05:00;35.65;;;22.10;;
51780;SDS011;37844;57.126;24.288;2022-10-23T08:07:26;33.78;;;22.35;;
51780;SDS011;37844;57.126;24.288;2022-10-23T08:09:51;30.33;;;20.80;;
51780;SDS011;37844;57.126;24.288;2022-10-23T08:12:23;35.72;;;20.80;;
51780;SDS011;37844;57.126;24.288;2022-10-23T08:14:55;28.00;;;19.17;;
51780;SDS011;37844;57.126;24.288;2022-10-23T08:17:20;28.50;;;19.48;;
51780;SDS011;37844;57.126;24.288;2022-10-23T08:19:46;30.42;;;19.80;;
51780;SDS011;37844;57.126;24.288;2022-10-23T08:22:12;27.35;;;19.02;;
51780;SDS011;37844;57.126;24.288;2022-10-23T08:24:38;28.95;;;20.55;;
51780;SDS011;37844;57.126;24.288;2022-10-23T08:27:04;27.80;;;19.30;;
51780;SDS011;37844;57.126;24.288;2022-10-23T08:29:29;25.58;;;18.13;;
51780;SDS011;37844;57.126;24.288;2022-10-23T08:31:54;26.23;;;19.13;;
51780;SDS011;37844;57.126;24.288;2022-10-23T08:34:21;26.90;;;20.02;;
51780;SDS011;37844;57.126;24.288;2022-10-23T08:36:49;29.00;;;20.85;;
51780;SDS011;37844;57.126;24.288;2022-10-23T08:39:15;32.42;;;20.63;;
51780;SDS011;37844;57.126;24.288;2022-10-23T08:41:41;29.52;;;19.23;;
51780;SDS011;37844;57.126;24.288;2022-10-23T08:44:13;24.23;;;18.55;;
51780;SDS011;37844;57.126;24.288;2022-10-23T08:47:07;29.77;;;19.30;;
51780;SDS011;37844;57.126;24.288;2022-10-23T08:49:49;25.73;;;18.10;;
51780;SDS011;37844;57.126;24.288;2022-10-23T08:52:21;23.60;;;15.73;;
51780;SDS011;37844;57.126;24.288;2022-10-23T08:55:05;26.75;;;17.52;;
51780;SDS011;37844;57.126;24.288;2022-10-23T08:57:32;25.48;;;17.77;;
51780;SDS011;37844;57.126;24.288;2022-10-23T09:00:09;25.00;;;16.17;;
51780;SDS011;37844;57.126;24.288;2022-10-23T09:02:42;22.70;;;17.15;;
51780;SDS011;37844;57.126;24.288;2022-10-23T09:05:12;24.83;;;16.17;;
51780;SDS011;37844;57.126;24.288;2022-10-23T09:07:55;25.38;;;17.35;;
51780;SDS011;37844;57.126;24.288;2022-10-23T09:18:59;25.52;;;18.10;;
51780;SDS011;37844;57.126;24.288;2022-10-23T09:21:28;27.13;;;16.52;;
51780;SDS011;37844;57.126;24.288;2022-10-23T09:23:54;20.60;;;15.50;;
51780;SDS011;37844;57.126;24.288;2022-10-23T09:26:21;19.27;;;14.48;;
51780;SDS011;37844;57.126;24.288;2022-10-23T09:28:50;17.80;;;12.38;;
51780;SDS011;37844;57.126;24.288;2022-10-23T09:33:59;16.33;;;9.95;;
51780;SDS011;37844;57.126;24.288;2022-10-23T09:36:26;14.20;;;10.68;;
51780;SDS011;37844;57.126;24.288;2022-10-23T09:38:57;12.25;;;8.35;;
51780;SDS011;37844;57.126;24.288;2022-10-23T09:44:10;14.50;;;8.90;;
51780;SDS011;37844;57.126;24.288;2022-10-23T09:46:48;14.82;;;9.27;;
51780;SDS011;37844;57.126;24.288;2022-10-23T09:51:47;13.85;;;8.93;;
51780;SDS011;37844;57.126;24.288;2022-10-23T09:54:18;14.85;;;9.85;;
51780;SDS011;37844;57.126;24.288;2022-10-23T09:56:48;15.63;;;10.23;;
51780;SDS011;37844;57.126;24.288;2022-10-23T10:07:51;16.10;;;9.90;;
51780;SDS011;37844;57.126;24.288;2022-10-23T10:10:19;11.63;;;8.30;;
51780;SDS011;37844;57.126;24.288;2022-10-23T10:12:55;11.32;;;7.93;;
51780;SDS011;37844;57.126;24.288;2022-10-23T10:15:31;9.48;;;5.97;;
51780;SDS011;37844;57.126;24.288;2022-10-23T10:26:39;9.98;;;6.32;;
51780;SDS011;37844;57.126;24.288;2022-10-23T10:37:39;7.45;;;4.88;;
51780;SDS011;37844;57.126;24.288;2022-10-23T10:40:35;10.80;;;5.13;;
51780;SDS011;37844;57.126;24.288;2022-10-23T10:43:21;10.35;;;6.68;;
51780;SDS011;37844;57.126;24.288;2022-10-23T10:45:59;9.93;;;6.47;;
51780;SDS011;37844;57.126;24.288;2022-10-23T10:51:16;8.43;;;5.55;;
51780;SDS011;37844;57.126;24.288;2022-10-23T10:53:54;9.45;;;5.43;;
51780;SDS011;37844;57.126;24.288;2022-10-23T10:56:35;13.55;;;8.05;;
51780;SDS011;37844;57.126;24.288;2022-10-23T11:01:52;10.05;;;6.47;;
51780;SDS011;37844;57.126;24.288;2022-10-23T11:06:45;17.33;;;5.90;;
51780;SDS011;37844;57.126;24.288;2022-10-23T11:11:45;12.20;;;6.97;;
51780;SDS011;37844;57.126;24.288;2022-10-23T11:14:17;12.18;;;6.10;;
51780;SDS011;37844;57.126;24.288;2022-10-23T11:16:58;8.52;;;4.38;;
51780;SDS011;37844;57.126;24.288;2022-10-23T11:19:46;14.05;;;4.47;;
51780;SDS011;37844;57.126;24.288;2022-10-23T11:22:21;8.75;;;4.35;;
51780;SDS011;37844;57.126;24.288;2022-10-23T11:25:12;9.43;;;4.63;;
51780;SDS011;37844;57.126;24.288;2022-10-23T11:36:52;17.15;;;6.32;;
51780;SDS011;37844;57.126;24.288;2022-10-23T11:39:33;9.68;;;5.90;;
51780;SDS011;37844;57.126;24.288;2022-10-23T11:47:01;11.70;;;5.05;;
51780;SDS011;37844;57.126;24.288;2022-10-23T11:49:28;16.98;;;4.85;;
51780;SDS011;37844;57.126;24.288;2022-10-23T11:52:01;10.80;;;4.47;;
51780;SDS011;37844;57.126;24.288;2022-10-23T11:54:29;8.40;;;4.43;;
51780;SDS011;37844;57.126;24.288;2022-10-23T11:57:07;15.77;;;6.43;;
51780;SDS011;37844;57.126;24.288;2022-10-23T12:05:29;7.45;;;4.10;;
51780;SDS011;37844;57.126;24.288;2022-10-23T12:08:03;10.30;;;5.13;;
51780;SDS011;37844;57.126;24.288;2022-10-23T12:10:42;12.57;;;4.45;;
51780;SDS011;37844;57.126;24.288;2022-10-23T12:16:00;7.40;;;3.85;;
51780;SDS011;37844;57.126;24.288;2022-10-23T12:18:26;9.85;;;4.45;;
51780;SDS011;37844;57.126;24.288;2022-10-23T12:39:29;9.68;;;5.63;;
51780;SDS011;37844;57.126;24.288;2022-10-23T12:41:55;10.27;;;5.15;;
51780;SDS011;37844;57.126;24.288;2022-10-23T12:44:21;14.02;;;6.40;;
51780;SDS011;37844;57.126;24.288;2022-10-23T12:46:50;10.57;;;5.97;;
51780;SDS011;37844;57.126;24.288;2022-10-23T12:49:21;10.32;;;5.28;;
51780;SDS011;37844;57.126;24.288;2022-10-23T12:51:55;9.52;;;4.15;;
51780;SDS011;37844;57.126;24.288;2022-10-23T12:54:20;7.40;;;3.70;;
51780;SDS011;37844;57.126;24.288;2022-10-23T12:56:46;7.43;;;3.88;;
51780;SDS011;37844;57.126;24.288;2022-10-23T12:59:13;7.68;;;4.03;;
51780;SDS011;37844;57.126;24.288;2022-10-23T13:01:41;9.10;;;3.90;;
51780;SDS011;37844;57.126;24.288;2022-10-23T13:04:21;7.78;;;4.40;;
51780;SDS011;37844;57.126;24.288;2022-10-23T13:06:57;6.40;;;3.47;;
51780;SDS011;37844;57.126;24.288;2022-10-23T13:09:31;15.80;;;4.28;;
51780;SDS011;37844;57.126;24.288;2022-10-23T13:11:57;16.77;;;5.47;;
51780;SDS011;37844;57.126;24.288;2022-10-23T13:17:06;14.40;;;4.63;;
51780;SDS011;37844;57.126;24.288;2022-10-23T13:19:33;16.90;;;5.57;;
51780;SDS011;37844;57.126;24.288;2022-10-23T13:21:59;19.15;;;9.52;;
51780;SDS011;37844;57.126;24.288;2022-10-23T13:24:27;46.22;;;22.67;;
51780;SDS011;37844;57.126;24.288;2022-10-23T13:26:53;16.08;;;7.97;;
51780;SDS011;37844;57.126;24.288;2022-10-23T13:29:22;14.68;;;7.50;;
51780;SDS011;37844;57.126;24.288;2022-10-23T13:31:50;10.30;;;6.47;;
51780;SDS011;37844;57.126;24.288;2022-10-23T13:39:28;12.82;;;6.80;;
51780;SDS011;37844;57.126;24.288;2022-10-23T13:42:00;12.55;;;5.80;;
51780;SDS011;37844;57.126;24.288;2022-10-23T13:44:35;18.08;;;6.72;;
51780;SDS011;37844;57.126;24.288;2022-10-23T13:47:02;14.30;;;5.72;;
51780;SDS011;37844;57.126;24.288;2022-10-23T13:49:27;15.95;;;6.55;;
51780;SDS011;37844;57.126;24.288;2022-10-23T13:51:54;20.02;;;7.03;;
51780;SDS011;37844;57.126;24.288;2022-10-23T13:54:26;13.50;;;5.57;;
51780;SDS011;37844;57.126;24.288;2022-10-23T13:56:53;9.63;;;4.68;;
51780;SDS011;37844;57.126;24.288;2022-10-23T13:59:20;8.73;;;5.10;;
51780;SDS011;37844;57.126;24.288;2022-10-23T14:01:46;15.15;;;5.10;;
51780;SDS011;37844;57.126;24.288;2022-10-23T14:04:13;8.43;;;5.10;;
51780;SDS011;37844;57.126;24.288;2022-10-23T14:06:40;12.38;;;6.80;;
51780;SDS011;37844;57.126;24.288;2022-10-23T14:09:07;14.43;;;7.13;;
51780;SDS011;37844;57.126;24.288;2022-10-23T14:11:36;12.80;;;5.32;;
51780;SDS011;37844;57.126;24.288;2022-10-23T14:14:02;10.98;;;6.03;;
51780;SDS011;37844;57.126;24.288;2022-10-23T14:16:27;10.30;;;4.50;;
51780;SDS011;37844;57.126;24.288;2022-10-23T14:18:53;9.13;;;4.60;;
51780;SDS011;37844;57.126;24.288;2022-10-23T14:21:19;12.98;;;5.85;;
51780;SDS011;37844;57.126;24.288;2022-10-23T14:23:46;18.05;;;6.10;;
51780;SDS011;37844;57.126;24.288;2022-10-23T14:26:14;16.77;;;7.80;;
51780;SDS011;37844;57.126;24.288;2022-10-23T14:28:41;17.65;;;6.55;;
51780;SDS011;37844;57.126;24.288;2022-10-23T14:31:11;12.95;;;7.43;;
51780;SDS011;37844;57.126;24.288;2022-10-23T14:33:39;14.48;;;7.68;;
51780;SDS011;37844;57.126;24.288;2022-10-23T14:36:05;13.45;;;7.40;;
51780;SDS011;37844;57.126;24.288;2022-10-23T14:38:31;11.82;;;6.53;;
51780;SDS011;37844;57.126;24.288;2022-10-23T14:40:56;11.93;;;6.60;;
51780;SDS011;37844;57.126;24.288;2022-10-23T14:43:22;14.15;;;6.68;;
51780;SDS011;37844;57.126;24.288;2022-10-23T14:45:48;11.68;;;6.30;;
51780;SDS011;37844;57.126;24.288;2022-10-23T14:48:14;13.35;;;8.23;;
51780;SDS011;37844;57.126;24.288;2022-10-23T14:50:44;11.57;;;7.35;;
51780;SDS011;37844;57.126;24.288;2022-10-23T14:53:11;15.80;;;7.45;;
51780;SDS011;37844;57.126;24.288;2022-10-23T14:55:37;14.88;;;7.75;;
51780;SDS011;37844;57.126;24.288;2022-10-23T14:58:03;15.23;;;7.80;;
51780;SDS011;37844;57.126;24.288;2022-10-23T15:00:28;15.20;;;7.78;;
51780;SDS011;37844;57.126;24.288;2022-10-23T15:02:54;14.63;;;7.10;;
51780;SDS011;37844;57.126;24.288;2022-10-23T15:05:20;16.60;;;8.68;;
51780;SDS011;37844;57.126;24.288;2022-10-23T15:07:45;19.83;;;12.38;;
51780;SDS011;37844;57.126;24.288;2022-10-23T15:10:11;13.43;;;7.97;;
51780;SDS011;37844;57.126;24.288;2022-10-23T15:12:37;12.80;;;7.57;;
51780;SDS011;37844;57.126;24.288;2022-10-23T15:15:03;14.50;;;6.88;;
51780;SDS011;37844;57.126;24.288;2022-10-23T15:17:30;15.40;;;8.73;;
51780;SDS011;37844;57.126;24.288;2022-10-23T15:19:58;18.52;;;8.32;;
51780;SDS011;37844;57.126;24.288;2022-10-23T15:22:23;16.65;;;8.98;;
51780;SDS011;37844;57.126;24.288;2022-10-23T15:24:49;17.75;;;7.40;;
51780;SDS011;37844;57.126;24.288;2022-10-23T15:27:16;12.50;;;6.00;;
51780;SDS011;37844;57.126;24.288;2022-10-23T15:29:42;15.23;;;5.55;;
51780;SDS011;37844;57.126;24.288;2022-10-23T15:32:07;12.88;;;6.03;;
51780;SDS011;37844;57.126;24.288;2022-10-23T15:34:34;23.27;;;7.30;;
51780;SDS011;37844;57.126;24.288;2022-10-23T15:37:01;15.82;;;6.32;;
51780;SDS011;37844;57.126;24.288;2022-10-23T15:39:28;14.60;;;7.30;;
51780;SDS011;37844;57.126;24.288;2022-10-23T15:41:59;14.73;;;6.18;;
51780;SDS011;37844;57.126;24.288;2022-10-23T15:44:26;15.60;;;7.88;;
51780;SDS011;37844;57.126;24.288;2022-10-23T15:46:53;11.73;;;5.80;;
51780;SDS011;37844;57.126;24.288;2022-10-23T15:49:21;13.57;;;6.32;;
51780;SDS011;37844;57.126;24.288;2022-10-23T15:51:47;12.45;;;5.78;;
51780;SDS011;37844;57.126;24.288;2022-10-23T15:54:13;9.63;;;5.38;;
51780;SDS011;37844;57.126;24.288;2022-10-23T15:56:47;12.90;;;5.13;;
51780;SDS011;37844;57.126;24.288;2022-10-23T15:59:14;14.45;;;4.97;;
51780;SDS011;37844;57.126;24.288;2022-10-23T16:01:41;13.23;;;4.75;;
51780;SDS011;37844;57.126;24.288;2022-10-23T16:04:06;10.38;;;5.95;;
51780;SDS011;37844;57.126;24.288;2022-10-23T16:06:32;18.38;;;8.00;;
51780;SDS011;37844;57.126;24.288;2022-10-23T16:08:58;23.58;;;8.85;;
51780;SDS011;37844;57.126;24.288;2022-10-23T16:11:25;15.75;;;8.10;;
51780;SDS011;37844;57.126;24.288;2022-10-23T16:13:55;13.45;;;6.72;;
51780;SDS011;37844;57.126;24.288;2022-10-23T16:16:21;9.80;;;4.80;;
51780;SDS011;37844;57.126;24.288;2022-10-23T16:18:47;13.80;;;6.80;;
51780;SDS011;37844;57.126;24.288;2022-10-23T16:21:20;9.20;;;5.45;;
51780;SDS011;37844;57.126;24.288;2022-10-23T16:23:47;9.82;;;5.03;;
51780;SDS011;37844;57.126;24.288;2022-10-23T16:26:13;8.45;;;4.32;;
51780;SDS011;37844;57.126;24.288;2022-10-23T16:28:39;9.15;;;5.18;;
51780;SDS011;37844;57.126;24.288;2022-10-23T16:31:10;11.95;;;4.90;;
51780;SDS011;37844;57.126;24.288;2022-10-23T16:33:37;9.98;;;5.15;;
51780;SDS011;37844;57.126;24.288;2022-10-23T16:36:04;9.73;;;3.97;;
51780;SDS011;37844;57.126;24.288;2022-10-23T16:38:31;8.45;;;3.97;;
51780;SDS011;37844;57.126;24.288;2022-10-23T16:40:57;13.50;;;5.82;;
51780;SDS011;37844;57.126;24.288;2022-10-23T16:43:23;8.95;;;5.30;;